createdAt,value
2023-03-03T00:01:10.119Z,16.00
2023-03-03T00:03:39.115Z,15.97
2023-03-03T00:06:11.218Z,15.77
2023-03-03T00:08:40.156Z,14.37
2023-03-03T00:11:10.952Z,15.30
2023-03-03T00:13:48.528Z,17.67
2023-03-03T00:16:25.686Z,13.20
2023-03-03T00:18:54.874Z,11.37
2023-03-03T00:21:30.246Z,14.03
2023-03-03T00:24:19.157Z,12.73
2023-03-03T00:26:49.904Z,12.63
2023-03-03T00:29:33.418Z,12.97
2023-03-03T00:32:23.848Z,13.87
2023-03-03T00:34:54.240Z,13.53
2023-03-03T00:37:33.980Z,13.63
2023-03-03T00:40:21.367Z,14.70
2023-03-03T00:42:54.169Z,13.30
2023-03-03T00:45:29.587Z,12.43
2023-03-03T00:47:58.820Z,12.13
2023-03-03T00:50:30.638Z,12.20
2023-03-03T00:53:11.614Z,14.03
2023-03-03T00:55:40.565Z,11.87
2023-03-03T00:58:10.550Z,13.50
2023-03-03T01:00:39.090Z,11.93
2023-03-03T01:03:09.619Z,13.13
2023-03-03T01:05:38.527Z,12.67
2023-03-03T01:08:07.211Z,12.43
2023-03-03T01:10:39.070Z,14.87
2023-03-03T01:13:07.874Z,17.43
2023-03-03T01:15:37.828Z,17.43
2023-03-03T01:18:06.383Z,17.77
2023-03-03T01:20:34.948Z,15.07
2023-03-03T01:23:03.597Z,16.23
2023-03-03T01:25:32.254Z,15.70
2023-03-03T01:28:00.678Z,14.73
2023-03-03T01:30:29.444Z,17.57
2023-03-03T01:32:59.367Z,18.30
2023-03-03T01:35:29.916Z,16.07
2023-03-03T01:37:59.488Z,14.40
2023-03-03T01:40:29.580Z,17.37
2023-03-03T01:42:59.458Z,13.37
2023-03-03T01:45:29.313Z,13.47
2023-03-03T01:48:01.763Z,16.00
2023-03-03T01:50:37.429Z,14.40
2023-03-03T01:53:09.028Z,16.37
2023-03-03T01:55:38.723Z,14.23
2023-03-03T01:58:09.059Z,13.53
2023-03-03T02:00:39.521Z,12.10
2023-03-03T02:03:09.709Z,13.83
2023-03-03T02:05:38.594Z,13.27
2023-03-03T02:08:08.459Z,12.20
2023-03-03T02:10:37.331Z,13.73
2023-03-03T02:13:05.729Z,14.03
2023-03-03T02:15:36.725Z,12.73
2023-03-03T02:18:07.609Z,12.07
2023-03-03T02:20:46.723Z,14.40
2023-03-03T02:23:19.867Z,14.40
2023-03-03T02:25:54.004Z,15.63
2023-03-03T02:28:25.094Z,12.37
2023-03-03T02:30:55.646Z,12.93
2023-03-03T02:33:24.304Z,13.23
2023-03-03T02:35:53.407Z,15.30
2023-03-03T02:38:25.791Z,14.67
2023-03-03T02:41:01.883Z,13.47
2023-03-03T02:43:34.803Z,14.97
2023-03-03T02:46:03.272Z,14.43
2023-03-03T02:48:31.817Z,15.10
2023-03-03T02:51:00.287Z,12.30
2023-03-03T02:53:28.816Z,12.97
2023-03-03T02:55:57.179Z,13.10
2023-03-03T02:58:25.669Z,11.93
2023-03-03T03:00:55.665Z,14.00
2023-03-03T03:03:24.248Z,13.10
2023-03-03T03:05:52.884Z,11.70
2023-03-03T03:08:21.329Z,12.23
2023-03-03T03:10:49.906Z,13.43
2023-03-03T03:13:18.313Z,13.70
2023-03-03T03:15:47.674Z,13.27
2023-03-03T03:18:17.841Z,13.77
2023-03-03T03:20:48.401Z,13.13
2023-03-03T03:23:17.568Z,12.77
2023-03-03T03:25:46.598Z,12.87
2023-03-03T03:28:16.223Z,11.30
2023-03-03T03:30:45.742Z,12.00
2023-03-03T03:33:14.318Z,13.77
2023-03-03T03:35:47.074Z,10.73
2023-03-03T03:38:16.166Z,14.07
2023-03-03T03:40:45.187Z,12.57
2023-03-03T03:43:13.696Z,12.87
2023-03-03T03:45:43.909Z,13.67
2023-03-03T03:48:12.901Z,13.73
2023-03-03T03:50:41.285Z,12.73
2023-03-03T03:53:11.100Z,12.80
2023-03-03T03:55:39.517Z,11.77
2023-03-03T03:58:07.935Z,13.23
2023-03-03T04:00:36.418Z,13.30
2023-03-03T04:03:05.050Z,11.60
2023-03-03T04:05:33.690Z,12.87
2023-03-03T04:08:02.232Z,11.80
2023-03-03T04:10:32.094Z,11.80
2023-03-03T04:13:00.577Z,12.37
2023-03-03T04:15:29.110Z,12.50
2023-03-03T04:17:57.525Z,27.20
2023-03-03T04:20:26.052Z,24.90
2023-03-03T04:22:54.474Z,16.27
2023-03-03T04:25:23.028Z,12.63
2023-03-03T04:27:54.325Z,12.77
2023-03-03T04:30:22.838Z,12.73
2023-03-03T04:32:51.297Z,11.77
2023-03-03T04:35:19.844Z,12.40
2023-03-03T04:37:48.245Z,11.33
2023-03-03T04:40:18.295Z,13.53
2023-03-03T04:42:47.155Z,13.13
2023-03-03T04:45:17.214Z,12.10
2023-03-03T04:47:45.719Z,10.30
2023-03-03T04:50:14.153Z,13.63
2023-03-03T04:52:42.616Z,12.53
2023-03-03T04:55:11.882Z,12.53
2023-03-03T04:57:40.496Z,12.87
2023-03-03T05:00:10.011Z,12.07
2023-03-03T05:02:39.803Z,11.63
2023-03-03T05:05:09.821Z,18.47
2023-03-03T05:07:38.368Z,24.97
2023-03-03T05:10:08.021Z,15.87
2023-03-03T05:12:36.445Z,13.07
2023-03-03T05:15:05.685Z,15.03
2023-03-03T05:17:34.115Z,12.27
2023-03-03T05:20:05.541Z,12.60
2023-03-03T05:22:33.972Z,12.57
2023-03-03T05:25:02.432Z,18.13
2023-03-03T05:27:30.884Z,20.60
2023-03-03T05:29:59.336Z,15.37
2023-03-03T05:32:28.007Z,12.67
2023-03-03T05:34:56.601Z,13.17
2023-03-03T05:37:26.416Z,17.50
2023-03-03T05:39:54.828Z,14.40
2023-03-03T05:42:23.366Z,13.13
2023-03-03T05:45:01.912Z,11.87
2023-03-03T05:47:30.906Z,11.70
2023-03-03T05:49:59.332Z,11.37
2023-03-03T05:52:29.391Z,13.07
2023-03-03T05:54:57.841Z,12.40
2023-03-03T05:57:26.394Z,14.80
2023-03-03T05:59:54.834Z,15.83
2023-03-03T06:02:23.247Z,21.73
2023-03-03T06:04:51.685Z,19.43
2023-03-03T06:07:20.185Z,19.43
2023-03-03T06:09:50.020Z,18.97
2023-03-03T06:12:18.543Z,16.33
2023-03-03T06:14:47.029Z,17.23
2023-03-03T06:17:15.470Z,24.03
2023-03-03T06:19:43.941Z,14.37
2023-03-03T06:22:12.407Z,12.60
2023-03-03T06:24:40.896Z,12.00
2023-03-03T06:27:11.060Z,13.07
2023-03-03T06:29:39.548Z,14.30
2023-03-03T06:32:08.098Z,16.43
2023-03-03T06:34:36.743Z,14.13
2023-03-03T06:37:05.170Z,16.23
2023-03-03T06:39:34.794Z,18.43
2023-03-03T06:42:03.222Z,17.87
2023-03-03T06:44:33.202Z,14.03
2023-03-03T06:47:01.641Z,32.40
2023-03-03T06:49:30.149Z,27.70
2023-03-03T06:52:00.662Z,16.97
2023-03-03T06:54:31.093Z,14.40
2023-03-03T06:57:01.966Z,16.10
2023-03-03T06:59:30.364Z,12.90
2023-03-03T07:02:00.295Z,14.17
2023-03-03T07:04:31.706Z,11.87
2023-03-03T07:07:02.137Z,12.80
2023-03-03T07:09:31.104Z,15.30
2023-03-03T07:12:11.781Z,13.13
2023-03-03T07:14:44.064Z,13.03
2023-03-03T07:17:17.232Z,17.10
2023-03-03T07:19:46.778Z,20.60
2023-03-03T07:22:17.809Z,32.80
2023-03-03T07:24:47.211Z,18.07
2023-03-03T07:27:21.216Z,15.00
2023-03-03T07:29:51.494Z,17.60
2023-03-03T07:32:28.172Z,15.60
2023-03-03T07:34:57.632Z,16.80
2023-03-03T07:37:32.847Z,14.70
2023-03-03T07:40:02.101Z,15.07
2023-03-03T07:42:37.923Z,15.63
2023-03-03T07:45:25.904Z,15.33
2023-03-03T07:48:00.953Z,17.50
2023-03-03T07:50:29.553Z,17.40
2023-03-03T07:53:00.129Z,17.70
2023-03-03T07:55:33.791Z,15.40
2023-03-03T07:58:23.064Z,24.87
2023-03-03T08:01:27.349Z,20.53
2023-03-03T08:03:57.753Z,14.97
2023-03-03T08:06:36.777Z,16.13
2023-03-03T08:09:28.201Z,15.17
2023-03-03T08:11:59.974Z,12.73
2023-03-03T08:14:31.134Z,13.40
2023-03-03T08:17:01.714Z,13.07
2023-03-03T08:19:31.993Z,15.27
2023-03-03T08:22:04.438Z,14.83
2023-03-03T08:24:33.055Z,17.73
2023-03-03T08:27:01.762Z,15.60
2023-03-03T08:29:30.321Z,12.87
2023-03-03T08:31:58.954Z,13.60
2023-03-03T08:34:27.613Z,14.17
2023-03-03T08:36:58.525Z,13.93
2023-03-03T08:39:26.966Z,17.50
2023-03-03T08:41:55.390Z,18.97
2023-03-03T08:44:23.818Z,14.13
2023-03-03T08:46:52.247Z,13.57
2023-03-03T08:49:20.670Z,11.87
2023-03-03T08:51:49.251Z,14.20
2023-03-03T08:54:19.059Z,13.53
2023-03-03T08:56:47.507Z,14.77
2023-03-03T08:59:15.918Z,12.60
2023-03-03T09:01:45.534Z,24.40
2023-03-03T09:04:14.043Z,15.50
2023-03-03T09:06:42.578Z,15.00
2023-03-03T09:09:11.049Z,14.80
2023-03-03T09:11:40.848Z,14.47
2023-03-03T09:14:12.796Z,10.83
2023-03-03T09:16:42.543Z,10.50
2023-03-03T09:19:24.564Z,14.40
2023-03-03T09:21:54.796Z,11.63
2023-03-03T09:24:27.435Z,12.97
2023-03-03T09:26:59.736Z,33.17
2023-03-03T09:29:30.385Z,15.50
2023-03-03T09:32:01.049Z,12.67
2023-03-03T09:34:40.143Z,13.27
2023-03-03T09:37:20.144Z,13.63
2023-03-03T09:39:50.921Z,11.87
2023-03-03T09:42:43.020Z,11.43
2023-03-03T09:45:36.756Z,14.07
2023-03-03T09:48:35.048Z,11.73
2023-03-03T09:51:14.447Z,10.97
2023-03-03T09:53:51.848Z,13.53
2023-03-03T09:56:24.645Z,9.23
2023-03-03T09:59:04.714Z,9.43
2023-03-03T10:01:53.065Z,9.90
2023-03-03T10:04:47.875Z,8.90
2023-03-03T10:07:25.268Z,11.10
2023-03-03T10:10:13.621Z,9.87
2023-03-03T10:12:50.563Z,11.60
2023-03-03T10:15:37.408Z,9.57
2023-03-03T10:18:14.321Z,10.10
2023-03-03T10:21:03.920Z,9.50
2023-03-03T10:23:56.297Z,8.07
2023-03-03T10:26:46.505Z,10.73
2023-03-03T10:29:29.186Z,12.40
2023-03-03T10:32:21.499Z,10.97
2023-03-03T10:34:56.418Z,12.03
2023-03-03T10:37:31.754Z,10.77
2023-03-03T10:40:10.915Z,10.10
2023-03-03T10:42:49.232Z,9.40
2023-03-03T10:45:37.246Z,10.47
2023-03-03T10:48:15.029Z,9.63
2023-03-03T10:50:52.031Z,9.63
2023-03-03T10:53:29.087Z,8.70
2023-03-03T10:56:14.724Z,8.87
2023-03-03T10:59:11.109Z,9.73
2023-03-03T11:01:47.063Z,8.57
2023-03-03T11:04:47.636Z,11.17
2023-03-03T11:07:22.457Z,9.63
2023-03-03T11:10:03.620Z,8.87
2023-03-03T11:12:41.256Z,10.00
2023-03-03T11:15:33.559Z,9.13
2023-03-03T11:18:28.250Z,10.97
2023-03-03T11:21:06.515Z,7.17
2023-03-03T11:23:55.551Z,8.60
2023-03-03T11:26:35.130Z,6.87
2023-03-03T11:29:13.169Z,8.07
2023-03-03T11:31:47.712Z,7.83
2023-03-03T11:34:24.484Z,9.00
2023-03-03T11:36:56.710Z,7.93
2023-03-03T11:39:27.681Z,7.33
2023-03-03T11:42:05.823Z,7.83
2023-03-03T11:44:37.328Z,7.53
2023-03-03T11:47:10.359Z,26.10
2023-03-03T11:49:41.702Z,8.97
2023-03-03T11:52:22.920Z,7.70
2023-03-03T11:54:55.468Z,7.80
2023-03-03T11:57:32.160Z,9.27
2023-03-03T12:00:25.564Z,8.60
2023-03-03T12:03:19.659Z,8.50
2023-03-03T12:05:53.624Z,7.50
2023-03-03T12:08:34.376Z,7.00
2023-03-03T12:11:05.937Z,9.13
2023-03-03T12:13:43.892Z,7.23
2023-03-03T12:16:15.822Z,10.73
2023-03-03T12:18:52.404Z,7.20
2023-03-03T12:21:32.841Z,7.37
2023-03-03T12:24:09.649Z,8.13
2023-03-03T12:26:44.277Z,6.93
2023-03-03T12:29:25.033Z,8.27
2023-03-03T12:31:56.462Z,8.90
2023-03-03T12:34:28.862Z,6.90
2023-03-03T12:37:29.078Z,7.27
2023-03-03T12:40:08.439Z,10.73
2023-03-03T12:42:45.805Z,6.07
2023-03-03T12:45:26.488Z,9.27
2023-03-03T12:47:59.578Z,8.23
2023-03-03T12:50:35.710Z,8.23
2023-03-03T12:53:14.570Z,7.87
2023-03-03T12:55:50.720Z,5.60
2023-03-03T12:58:32.667Z,8.40
2023-03-03T13:01:11.670Z,9.03
2023-03-03T13:03:55.000Z,7.50
2023-03-03T13:06:30.086Z,7.40
2023-03-03T13:09:10.541Z,8.83
2023-03-03T13:12:02.510Z,7.73
2023-03-03T13:14:37.237Z,9.13
2023-03-03T13:17:16.801Z,9.40
2023-03-03T13:19:48.267Z,8.40
2023-03-03T13:22:20.358Z,7.00
2023-03-03T13:24:58.097Z,8.77
2023-03-03T13:27:33.789Z,11.30
2023-03-03T13:30:04.481Z,8.13
2023-03-03T13:32:40.361Z,10.53
2023-03-03T13:35:16.130Z,7.87
2023-03-03T13:37:46.794Z,6.93
2023-03-03T13:40:19.280Z,7.37
2023-03-03T13:42:52.018Z,7.70
2023-03-03T13:45:24.916Z,7.67
2023-03-03T13:48:01.475Z,7.37
2023-03-03T13:50:34.612Z,8.27
2023-03-03T13:53:30.381Z,8.50
2023-03-03T13:56:06.371Z,9.63
2023-03-03T13:58:42.461Z,8.40
2023-03-03T14:01:17.241Z,8.43
2023-03-03T14:04:01.351Z,7.57
2023-03-03T14:06:30.778Z,10.03
2023-03-03T14:09:17.966Z,8.43
2023-03-03T14:11:48.850Z,7.33
2023-03-03T14:14:28.836Z,11.30
2023-03-03T14:17:00.031Z,9.33
2023-03-03T14:19:32.877Z,8.97
2023-03-03T14:22:11.207Z,8.77
2023-03-03T14:25:05.381Z,8.83
2023-03-03T14:27:40.273Z,10.50
2023-03-03T14:30:35.335Z,9.40
2023-03-03T14:33:16.280Z,8.83
2023-03-03T14:35:45.999Z,9.33
2023-03-03T14:38:17.320Z,11.17
2023-03-03T14:40:47.270Z,9.23
2023-03-03T14:43:24.820Z,8.30
2023-03-03T14:45:55.347Z,8.00
2023-03-03T14:48:25.802Z,10.87
2023-03-03T14:50:56.090Z,9.97
2023-03-03T14:53:34.519Z,11.50
2023-03-03T14:56:22.559Z,11.00
2023-03-03T14:58:51.956Z,9.77
2023-03-03T15:01:31.924Z,11.60
2023-03-03T15:04:01.779Z,12.67
2023-03-03T15:06:35.205Z,10.13
2023-03-03T15:09:33.798Z,10.73
2023-03-03T15:12:02.750Z,9.67
2023-03-03T15:14:33.736Z,8.33
2023-03-03T15:17:25.953Z,10.13
2023-03-03T15:20:10.044Z,8.43
2023-03-03T15:22:48.045Z,11.13
2023-03-03T15:25:25.645Z,10.63
2023-03-03T15:28:12.200Z,10.23
2023-03-03T15:30:45.212Z,8.13
2023-03-03T15:33:23.012Z,9.23
2023-03-03T15:35:55.380Z,9.93
2023-03-03T15:38:33.679Z,9.97
2023-03-03T15:41:10.290Z,8.70
2023-03-03T15:43:45.178Z,7.73
2023-03-03T15:46:22.811Z,10.73
2023-03-03T15:49:01.928Z,11.60
2023-03-03T15:52:02.498Z,28.77
2023-03-03T15:54:37.565Z,30.87
2023-03-03T15:57:13.127Z,23.20
2023-03-03T16:00:04.584Z,15.47
2023-03-03T16:02:44.075Z,11.53
2023-03-03T16:05:20.047Z,12.67
2023-03-03T16:07:54.716Z,10.47
2023-03-03T16:10:28.392Z,10.13
2023-03-03T16:13:01.818Z,8.27
2023-03-03T16:15:40.462Z,18.90
2023-03-03T16:18:14.773Z,17.83
2023-03-03T16:20:50.112Z,13.47
2023-03-03T16:23:24.006Z,21.60
2023-03-03T16:26:06.131Z,23.07
2023-03-03T16:28:48.731Z,22.37
2023-03-03T16:31:21.411Z,36.57
2023-03-03T16:33:56.859Z,20.30
2023-03-03T16:36:33.641Z,16.40
2023-03-03T16:39:05.961Z,14.67
2023-03-03T16:41:44.147Z,14.50
2023-03-03T16:44:24.751Z,16.90
2023-03-03T16:46:53.267Z,14.40
2023-03-03T16:49:28.308Z,13.63
2023-03-03T16:52:05.297Z,12.73
2023-03-03T16:54:37.106Z,15.13
2023-03-03T16:57:12.940Z,16.67
2023-03-03T16:59:49.538Z,15.50
2023-03-03T17:02:33.922Z,14.50
2023-03-03T17:05:06.687Z,14.93
2023-03-03T17:07:45.717Z,11.43
2023-03-03T17:10:21.898Z,11.60
2023-03-03T17:13:11.336Z,16.70
2023-03-03T17:15:49.497Z,20.33
2023-03-03T17:18:24.786Z,14.57
2023-03-03T17:20:57.667Z,18.03
2023-03-03T17:23:42.127Z,19.40
2023-03-03T17:26:26.161Z,27.83
2023-03-03T17:29:07.343Z,25.53
2023-03-03T17:31:42.816Z,16.23
2023-03-03T17:34:23.995Z,19.57
2023-03-03T17:37:00.571Z,15.73
2023-03-03T17:39:49.502Z,14.30
2023-03-03T17:42:23.167Z,15.13
2023-03-03T17:44:58.945Z,16.07
2023-03-03T17:47:47.489Z,13.57
2023-03-03T17:50:36.156Z,17.97
2023-03-03T17:53:26.494Z,14.17
2023-03-03T17:56:06.201Z,15.53
2023-03-03T17:59:02.407Z,13.20
2023-03-03T18:01:48.138Z,14.57
2023-03-03T18:04:35.112Z,14.53
2023-03-03T18:07:42.415Z,13.63
2023-03-03T18:10:42.794Z,11.47
2023-03-03T18:13:29.790Z,13.37
2023-03-03T18:16:22.611Z,13.00
2023-03-03T18:19:13.237Z,12.63
2023-03-03T18:21:52.210Z,11.93
2023-03-03T18:24:36.346Z,15.60
2023-03-03T18:27:33.996Z,16.83
2023-03-03T18:30:28.760Z,19.33
2023-03-03T18:33:15.347Z,31.47
2023-03-03T18:35:45.270Z,22.73
2023-03-03T18:38:39.646Z,17.50
2023-03-03T18:41:12.728Z,14.77
2023-03-03T18:43:58.496Z,19.17
2023-03-03T18:46:48.233Z,16.47
2023-03-03T18:49:17.554Z,16.00
2023-03-03T18:51:51.502Z,12.97
2023-03-03T18:54:31.009Z,15.20
2023-03-03T18:57:19.977Z,14.40
2023-03-03T18:59:56.800Z,14.53
2023-03-03T19:02:38.965Z,19.73
2023-03-03T19:05:18.866Z,24.90
2023-03-03T19:07:57.578Z,18.87
2023-03-03T19:10:52.266Z,18.67
2023-03-03T19:13:53.854Z,15.47
2023-03-03T19:16:37.355Z,15.20
2023-03-03T19:19:15.212Z,14.03
2023-03-03T19:21:54.211Z,17.60
2023-03-03T19:24:34.905Z,16.30
2023-03-03T19:27:30.631Z,13.30
2023-03-03T19:30:24.770Z,10.03
2023-03-03T19:33:10.518Z,11.57
2023-03-03T19:35:47.188Z,16.03
2023-03-03T19:38:27.887Z,12.93
2023-03-03T19:41:01.549Z,12.40
2023-03-03T19:43:38.354Z,16.00
2023-03-03T19:46:33.601Z,14.33
2023-03-03T19:49:08.703Z,12.23
2023-03-03T19:51:44.195Z,15.17
2023-03-03T19:54:22.590Z,13.73
2023-03-03T19:56:52.416Z,20.20
2023-03-03T19:59:28.500Z,13.57
2023-03-03T20:02:25.275Z,16.50
2023-03-03T20:05:05.959Z,13.77
2023-03-03T20:07:42.064Z,12.70
2023-03-03T20:10:34.785Z,14.10
2023-03-03T20:13:09.210Z,35.87
2023-03-03T20:15:45.936Z,26.40
2023-03-03T20:18:45.076Z,18.93
2023-03-03T20:21:20.635Z,12.87
2023-03-03T20:23:59.657Z,12.40
2023-03-03T20:26:30.894Z,13.73
2023-03-03T20:29:22.089Z,14.87
2023-03-03T20:31:56.259Z,13.03
2023-03-03T20:34:33.188Z,11.27
2023-03-03T20:37:06.713Z,10.77
2023-03-03T20:39:52.270Z,12.50
2023-03-03T20:42:33.354Z,11.70
2023-03-03T20:45:15.749Z,14.07
2023-03-03T20:47:49.836Z,17.70
2023-03-03T20:50:25.532Z,11.40
2023-03-03T20:53:02.346Z,16.27
2023-03-03T20:55:40.647Z,11.67
2023-03-03T20:58:12.144Z,12.67
2023-03-03T21:00:44.941Z,11.40
2023-03-03T21:03:17.705Z,11.17
2023-03-03T21:05:58.433Z,13.20
2023-03-03T21:08:45.027Z,14.50
2023-03-03T21:11:17.743Z,12.07
2023-03-03T21:13:47.038Z,11.60
2023-03-03T21:16:31.395Z,13.23
2023-03-03T21:19:01.230Z,23.00
2023-03-03T21:21:31.338Z,27.47
2023-03-03T21:24:00.207Z,24.00
2023-03-03T21:26:53.911Z,13.33
2023-03-03T21:29:26.030Z,11.00
2023-03-03T21:31:56.217Z,9.80
2023-03-03T21:34:28.905Z,14.67
2023-03-03T21:36:58.266Z,13.87
2023-03-03T21:39:29.602Z,13.93
2023-03-03T21:42:01.976Z,13.27
2023-03-03T21:44:35.664Z,11.77
2023-03-03T21:47:04.899Z,12.63
2023-03-03T21:49:33.589Z,13.57
2023-03-03T21:52:02.180Z,12.20
2023-03-03T21:54:30.620Z,10.97
2023-03-03T21:57:00.457Z,12.37
2023-03-03T21:59:29.015Z,12.40
2023-03-03T22:01:57.414Z,15.50
2023-03-03T22:04:25.949Z,15.43
2023-03-03T22:06:54.380Z,13.73
2023-03-03T22:09:22.891Z,11.43
2023-03-03T22:11:51.321Z,10.70
2023-03-03T22:14:21.122Z,10.17
2023-03-03T22:16:49.534Z,11.60
2023-03-03T22:19:18.002Z,32.10
2023-03-03T22:21:46.755Z,18.33
2023-03-03T22:24:15.176Z,13.87
2023-03-03T22:26:43.646Z,14.90
2023-03-03T22:29:12.210Z,13.40
2023-03-03T22:31:42.195Z,15.10
2023-03-03T22:34:10.768Z,12.10
2023-03-03T22:36:39.213Z,11.97
2023-03-03T22:39:07.716Z,10.60
2023-03-03T22:41:36.230Z,16.37
2023-03-03T22:44:04.652Z,10.83
2023-03-03T22:46:33.259Z,10.50
2023-03-03T22:49:03.100Z,11.00
2023-03-03T22:51:31.534Z,11.07
2023-03-03T22:54:00.094Z,10.80
2023-03-03T22:56:28.527Z,13.57
2023-03-03T22:58:56.968Z,12.73
2023-03-03T23:01:25.424Z,12.17
2023-03-03T23:03:53.903Z,11.73
2023-03-03T23:06:23.703Z,10.53
2023-03-03T23:08:52.141Z,11.47
2023-03-03T23:11:21.655Z,13.17
2023-03-03T23:13:50.080Z,10.33
2023-03-03T23:16:18.624Z,10.40
2023-03-03T23:18:47.094Z,10.43
2023-03-03T23:21:15.585Z,14.13
2023-03-03T23:23:45.478Z,9.27
2023-03-03T23:26:13.908Z,12.70
2023-03-03T23:28:42.333Z,10.50
2023-03-03T23:31:10.846Z,10.93
2023-03-03T23:33:39.305Z,12.10
2023-03-03T23:36:08.589Z,11.43
2023-03-03T23:38:37.111Z,11.77
2023-03-03T23:41:07.354Z,11.80
2023-03-03T23:43:35.866Z,13.53
2023-03-03T23:46:04.441Z,10.70
2023-03-03T23:48:32.986Z,12.37
2023-03-03T23:51:01.514Z,11.20
2023-03-03T23:53:29.977Z,10.40
2023-03-03T23:55:58.401Z,9.13
2023-03-03T23:58:28.288Z,8.97
